Terminal Aerodrome Forecast
Issued by NWS

Home | Current Version | Previous Version | Text Only | Print | Product List | Glossary On
Versions: 1 2 3 4 5 6 7 8 9 10 11 12 13 14
000
FTAK31 PAJN 220500
TAFAJN
TAF
PAJN 220537Z 2206/2306 00000KT 6SM BR VCSH SCT007 OVC030
      TEMPO 2206/2210 3SM -RA BR OVC005
     FM221000 VRB03KT 5SM -RA BR SCT003 BKN020
     FM222200 10008KT P6SM BCFG VCSH SCT005 BKN030=

USA.gov is the U.S. government's official web portal to all federal, state and local government web resources and services.